Time;durP1;ratioP1;P1;durP2;ratioP2;P2;SDS_P1;SDS_P2;PMS_P1;PMS_P2;Temp;Humidity;BMP_temperature;BMP_pressure;BME280_temperature;BME280_humidity;BME280_pressure;Samples;Min_cycle;Max_cycle;Signal;HPM_P1;HPM_P2
2022/05/18 00:04:13;;;;;;;11.32;3.50;;;;;;;15.68;62.85;100381.28;10389710;28;20057;-64
2022/05/18 00:09:15;;;;;;;11.27;3.88;;;;;;;15.57;62.50;100377.78;10390475;28;20053;-64
2022/05/18 00:14:17;;;;;;;11.18;3.47;;;;;;;15.28;63.00;100385.13;10388912;28;20057;-64
2022/05/18 00:19:19;;;;;;;9.73;3.50;;;;;;;15.27;63.23;100386.91;10389026;28;20103;-64
2022/05/18 00:24:21;;;;;;;8.77;3.40;;;;;;;15.27;63.62;100375.53;10388740;28;20100;-64
2022/05/18 00:29:22;;;;;;;8.93;3.38;;;;;;;15.26;62.99;100371.22;10371850;28;20053;-64
2022/05/18 00:34:24;;;;;;;5.32;3.42;;;;;;;15.16;62.81;100378.09;10387594;28;20458;-64
2022/05/18 00:39:26;;;;;;;12.15;3.80;;;;;;;15.15;63.49;100386.94;10384512;28;20089;-64
2022/05/18 00:44:28;;;;;;;6.95;3.50;;;;;;;15.07;63.66;100390.13;10387656;28;20421;-64
2022/05/18 00:49:29;;;;;;;7.38;3.65;;;;;;;15.12;63.59;100387.16;10386881;28;20067;-64
2022/05/18 00:54:33;;;;;;;8.55;3.90;;;;;;;15.05;63.92;100388.53;10387645;28;20092;-64
2022/05/18 00:59:43;;;;;;;6.50;3.50;;;;;;;14.92;64.11;100385.94;10377175;28;20065;-66
2022/05/18 01:04:48;;;;;;;7.80;3.72;;;;;;;14.80;63.70;100381.53;10385836;28;20144;-64
2022/05/18 01:09:50;;;;;;;11.77;4.40;;;;;;;14.59;63.71;100391.75;10385766;28;20128;-64
2022/05/18 01:14:59;;;;;;;8.23;4.00;;;;;;;14.56;64.44;100391.97;10367743;28;20053;-64
2022/05/18 01:20:06;;;;;;;7.47;4.17;;;;;;;14.66;64.06;100394.81;10385053;28;20048;-64
2022/05/18 01:25:23;;;;;;;10.15;3.97;;;;;;;14.54;64.55;100398.28;10384040;28;20096;-64
2022/05/18 01:30:28;;;;;;;8.50;4.10;;;;;;;14.58;64.20;100408.50;10383114;28;20089;-64
2022/05/18 01:35:32;;;;;;;9.38;3.85;;;;;;;14.58;64.03;100400.63;10384491;28;20132;-65
2022/05/18 01:40:55;;;;;;;10.15;3.60;;;;;;;14.54;64.09;100401.78;10384448;28;20583;-64
2022/05/18 01:46:00;;;;;;;11.00;4.47;;;;;;;14.49;64.32;100403.03;10380425;28;20593;-66
2022/05/18 01:51:04;;;;;;;22.55;4.60;;;;;;;14.47;64.15;100403.09;10383095;28;20056;-65
2022/05/18 01:56:08;;;;;;;7.95;4.05;;;;;;;14.40;64.55;100401.84;10382388;28;20488;-64
2022/05/18 02:01:09;;;;;;;8.02;4.10;;;;;;;14.46;64.13;100413.72;10386457;28;20420;-65
2022/05/18 02:06:11;;;;;;;7.07;4.13;;;;;;;14.47;64.11;100407.53;10391368;28;20077;-64
2022/05/18 02:11:15;;;;;;;9.27;4.05;;;;;;;14.45;63.91;100412.06;10390343;28;20059;-66
2022/05/18 02:16:18;;;;;;;65.05;6.78;;;;;;;14.31;64.25;100399.81;10391045;28;20085;-64
2022/05/18 02:21:20;;;;;;;47.58;5.15;;;;;;;14.26;64.45;100407.19;10391461;28;20132;-64
2022/05/18 02:26:22;;;;;;;15.40;4.97;;;;;;;14.32;63.97;100398.88;10389611;28;20131;-64
2022/05/18 02:31:24;;;;;;;7.53;3.92;;;;;;;14.19;63.94;100403.28;10391428;28;20057;-64
2022/05/18 02:36:26;;;;;;;7.88;4.30;;;;;;;14.15;63.73;100403.59;10389328;28;20053;-64
2022/05/18 02:41:28;;;;;;;9.02;4.78;;;;;;;14.22;64.17;100413.63;10390107;28;20500;-64
2022/05/18 02:46:30;;;;;;;6.22;4.78;;;;;;;14.34;63.63;100415.41;10389909;28;20479;-66
2022/05/18 02:51:32;;;;;;;11.20;3.92;;;;;;;14.20;64.14;100409.38;10388554;28;20059;-66
2022/05/18 02:56:33;;;;;;;10.82;3.97;;;;;;;14.30;64.00;100410.47;10390814;28;20140;-66
2022/05/18 03:01:35;;;;;;;5.75;3.63;;;;;;;14.38;63.82;100413.41;10387877;28;20462;-64
2022/05/18 03:06:37;;;;;;;6.75;3.63;;;;;;;14.40;63.95;100424.69;10384978;28;20457;-64
2022/05/18 03:11:39;;;;;;;14.13;5.00;;;;;;;14.25;64.07;100426.53;10391820;28;20050;-64
2022/05/18 03:16:44;;;;;;;7.47;4.18;;;;;;;14.23;64.24;100432.84;10391704;28;20076;-66
2022/05/18 03:27:10;;;;;;;7.18;4.88;;;;;;;14.12;64.52;100436.22;10390638;28;20421;-64
2022/05/18 03:32:12;;;;;;;7.28;4.18;;;;;;;14.08;64.34;100442.63;10388493;28;20049;-64
2022/05/18 03:37:14;;;;;;;6.50;3.83;;;;;;;14.16;64.35;100437.69;10388552;28;20194;-66
2022/05/18 03:42:16;;;;;;;5.68;3.30;;;;;;;14.17;64.35;100444.63;10383689;28;20267;-66
2022/05/18 03:47:17;;;;;;;6.45;4.25;;;;;;;14.16;64.12;100445.59;10387282;28;20521;-66
2022/05/18 03:52:19;;;;;;;5.53;4.00;;;;;;;14.13;63.95;100455.44;10388232;28;20540;-66
2022/05/18 03:57:22;;;;;;;6.68;4.05;;;;;;;14.10;64.13;100450.41;10388519;28;20049;-66
2022/05/18 04:02:24;;;;;;;7.45;3.90;;;;;;;14.13;64.06;100456.28;10387617;28;20077;-66
2022/05/18 04:07:25;;;;;;;6.97;3.90;;;;;;;14.14;63.82;100465.91;10389084;28;20233;-66
2022/05/18 04:12:28;;;;;;;8.15;3.90;;;;;;;14.28;63.69;100460.56;10389678;28;20379;-66
2022/05/18 04:17:30;;;;;;;6.03;3.58;;;;;;;14.42;63.23;100471.00;10386509;28;20057;-66
2022/05/18 04:22:32;;;;;;;6.82;3.95;;;;;;;14.77;62.58;100476.53;10380793;28;20136;-66
2022/05/18 04:27:34;;;;;;;5.90;4.07;;;;;;;15.25;61.82;100467.00;10377608;28;20502;-67
2022/05/18 04:32:39;;;;;;;4.05;3.42;;;;;;;16.45;58.78;100473.13;10385912;28;20505;-66
2022/05/18 04:37:40;;;;;;;3.10;2.42;;;;;;;18.44;54.79;100472.94;10387858;28;20171;-66
2022/05/18 04:42:42;;;;;;;4.75;2.80;;;;;;;20.71;49.44;100463.28;10384363;28;20049;-66
2022/05/18 04:47:44;;;;;;;5.45;2.60;;;;;;;22.06;46.09;100464.38;10387782;28;20103;-64
2022/05/18 04:52:46;;;;;;;4.82;2.75;;;;;;;19.83;49.27;100481.16;10389764;28;20608;-64
2022/05/18 04:57:48;;;;;;;5.78;2.95;;;;;;;18.36;52.43;100485.97;10388082;28;20171;-66
2022/05/18 05:02:55;;;;;;;5.30;3.08;;;;;;;17.72;53.99;100485.13;10388958;28;20671;-66
2022/05/18 05:07:58;;;;;;;5.32;3.17;;;;;;;17.43;54.31;100489.22;10388741;28;20054;-66
2022/05/18 05:12:59;;;;;;;5.75;3.33;;;;;;;17.77;54.05;100501.44;10389228;28;20053;-66
2022/05/18 05:18:01;;;;;;;4.60;2.97;;;;;;;17.98;53.54;100500.66;10388551;28;20081;-66
2022/05/18 05:23:03;;;;;;;5.00;2.90;;;;;;;18.80;52.07;100510.56;10386978;28;20076;-66
2022/05/18 05:28:08;;;;;;;5.15;2.90;;;;;;;19.14;51.30;100498.78;10386051;28;20191;-64
2022/05/18 05:33:11;;;;;;;4.07;2.85;;;;;;;18.99;52.29;100506.22;10384361;28;20532;-64
2022/05/18 05:38:13;;;;;;;4.63;2.78;;;;;;;18.64;52.95;100505.72;10385096;28;20089;-66
2022/05/18 05:43:14;;;;;;;6.78;2.88;;;;;;;17.98;54.56;100505.97;10386697;28;20077;-65
2022/05/18 05:48:16;;;;;;;5.75;3.15;;;;;;;17.78;55.00;100495.19;10385997;28;20081;-66
2022/05/18 05:53:18;;;;;;;7.15;3.10;;;;;;;17.85;55.46;100504.31;10386427;28;20143;-64
2022/05/18 05:58:22;;;;;;;7.13;3.20;;;;;;;17.73;56.13;100507.94;10383344;28;20574;-66
2022/05/18 06:03:23;;;;;;;6.97;3.50;;;;;;;17.96;56.07;100505.25;10385399;28;20153;-66
2022/05/18 06:08:25;;;;;;;9.18;4.20;;;;;;;18.13;55.80;100508.22;10384841;28;20144;-64
2022/05/18 06:13:28;;;;;;;7.78;4.20;;;;;;;18.20;56.02;100501.47;10386254;28;20052;-65
2022/05/18 06:18:30;;;;;;;8.13;4.63;;;;;;;18.44;55.66;100511.84;10382884;28;20439;-63
2022/05/18 06:23:32;;;;;;;7.45;4.40;;;;;;;18.55;55.36;100523.22;10384565;28;20084;-64
2022/05/18 06:28:40;;;;;;;10.88;5.05;;;;;;;18.74;55.14;100519.88;10382494;28;20069;-65
2022/05/18 06:33:42;;;;;;;7.80;4.85;;;;;;;19.01;54.84;100514.88;10383907;28;20053;-66
2022/05/18 06:38:44;;;;;;;11.25;5.10;;;;;;;19.16;54.75;100521.56;10383446;28;20053;-66
2022/05/18 06:43:45;;;;;;;9.35;4.53;;;;;;;19.28;54.40;100517.84;10382689;28;20136;-66
2022/05/18 06:48:48;;;;;;;8.48;4.82;;;;;;;19.42;54.12;100524.59;10382269;28;20103;-65
2022/05/18 06:53:51;;;;;;;7.65;4.38;;;;;;;19.55;53.36;100527.00;10384788;28;20059;-65
2022/05/18 06:58:54;;;;;;;13.43;4.60;;;;;;;19.64;54.03;100529.72;10383628;28;20140;-65
2022/05/18 07:03:57;;;;;;;10.10;4.13;;;;;;;19.97;53.74;100531.25;10381923;28;20563;-64
2022/05/18 07:09:04;;;;;;;10.85;4.57;;;;;;;20.32;53.29;100528.03;10383884;28;20454;-65
2022/05/18 07:14:12;;;;;;;;;;;;;;;20.18;53.13;100522.16;10385000;28;20134;-65
2022/05/18 07:19:15;;;;;;;8.88;4.15;;;;;;;20.37;52.60;100521.34;10382932;28;20003;-66
2022/05/18 07:24:17;;;;;;;8.63;4.20;;;;;;;20.24;52.64;100518.13;10383702;28;20103;-65
2022/05/18 07:29:19;;;;;;;11.07;4.38;;;;;;;21.18;51.16;100519.97;10382178;28;20139;-66
2022/05/18 07:34:22;;;;;;;13.02;4.32;;;;;;;23.21;46.78;100506.75;10381325;28;20515;-65
2022/05/18 07:39:28;;;;;;;8.57;3.83;;;;;;;23.74;45.21;100501.16;10382062;28;20344;-64
2022/05/18 07:44:29;;;;;;;9.77;4.10;;;;;;;24.99;43.06;100492.78;10382815;28;20175;-64
2022/05/18 07:49:36;;;;;;;8.75;4.15;;;;;;;25.56;40.20;100483.59;10383650;28;20099;-64
2022/05/18 07:54:38;;;;;;;8.98;4.15;;;;;;;26.09;39.92;100488.19;10388643;28;20141;-64
2022/05/18 07:59:39;;;;;;;7.78;4.07;;;;;;;26.48;38.82;100482.69;10388900;28;20726;-65
2022/05/18 08:04:41;;;;;;;10.02;3.85;;;;;;;26.92;37.88;100472.88;10381945;28;20144;-66
2022/05/18 08:15:07;;;;;;;8.00;3.50;;;;;;;27.70;36.78;100475.00;10386662;28;20166;-66
2022/05/18 08:20:15;;;;;;;8.10;3.60;;;;;;;27.77;36.51;100467.91;10386081;28;20120;-66
2022/05/18 08:25:18;;;;;;;10.95;3.45;;;;;;;28.43;36.55;100467.56;10387308;28;20092;-66
2022/05/18 08:30:21;;;;;;;6.22;3.22;;;;;;;28.30;35.72;100469.31;10385695;28;20155;-66
2022/05/18 08:35:24;;;;;;;10.68;3.45;;;;;;;28.19;36.44;100476.84;10387728;28;20086;-66
2022/05/18 08:40:28;;;;;;;8.65;3.40;;;;;;;28.53;36.80;100484.19;10384528;28;20220;-66
2022/05/18 08:45:36;;;;;;;6.25;3.35;;;;;;;28.49;36.00;100474.84;10382091;28;20061;-66
2022/05/18 08:50:39;;;;;;;7.07;3.42;;;;;;;28.86;36.22;100471.03;10384637;28;20119;-66
2022/05/18 08:56:08;;;;;;;10.13;3.70;;;;;;;28.92;35.25;100468.38;10383594;28;20072;-65
2022/05/18 09:01:16;;;;;;;8.80;3.60;;;;;;;28.76;35.31;100468.66;10380034;28;20045;-65
2022/05/18 09:06:27;;;;;;;6.75;3.65;;;;;;;29.22;34.54;100462.72;10383805;28;20837;-70
2022/05/18 09:11:29;;;;;;;7.75;3.35;;;;;;;29.35;35.33;100455.56;10385048;28;20080;-70
2022/05/18 09:16:40;;;;;;;9.55;3.30;;;;;;;28.99;36.36;100453.09;10386143;28;20052;-69
2022/05/18 09:22:01;;;;;;;5.43;2.90;;;;;;;29.06;34.40;100451.28;10383859;28;20049;-69
2022/05/18 09:27:21;;;;;;;7.93;3.03;;;;;;;29.27;35.27;100446.81;10386334;28;20642;-69
2022/05/18 09:32:46;;;;;;;8.88;3.20;;;;;;;29.04;33.73;100447.94;10384932;28;20081;-68
2022/05/18 09:38:19;;;;;;;6.05;3.00;;;;;;;29.20;33.73;100454.03;10386149;28;20053;-69
2022/05/18 09:43:40;;;;;;;6.93;2.67;;;;;;;29.34;32.91;100444.97;10382703;28;20105;-69
2022/05/18 09:48:52;;;;;;;6.43;2.92;;;;;;;29.27;32.37;100447.66;10383781;28;20057;-69
2022/05/18 09:53:58;;;;;;;6.18;2.70;;;;;;;29.49;33.48;100438.44;10385270;28;20098;-68
2022/05/18 09:59:07;;;;;;;6.38;2.50;;;;;;;29.48;31.43;100434.06;10384816;28;20773;-69
2022/05/18 10:09:43;;;;;;;6.00;2.50;;;;;;;29.20;30.79;100422.53;10384822;28;20147;-69
2022/05/18 10:15:18;;;;;;;5.30;2.25;;;;;;;29.37;30.51;100413.09;10377001;28;20546;-69
2022/05/18 10:20:32;;;;;;;7.55;1.98;;;;;;;29.49;30.90;100405.28;10384279;28;20543;-69
2022/05/18 10:25:40;;;;;;;7.45;1.90;;;;;;;28.96;30.47;100415.78;10380970;28;20553;-68
2022/05/18 10:31:03;;;;;;;7.13;2.30;;;;;;;29.40;31.34;100404.59;10375985;28;20068;-69
2022/05/18 10:36:27;;;;;;;6.72;2.20;;;;;;;29.35;30.01;100403.53;10380587;28;20501;-68
2022/05/18 10:41:41;;;;;;;6.38;2.20;;;;;;;29.23;30.08;100394.38;10381493;28;20536;-69
2022/05/18 10:46:48;;;;;;;4.88;2.00;;;;;;;28.96;28.66;100409.56;10381808;28;20513;-69
2022/05/18 10:51:50;;;;;;;5.18;1.75;;;;;;;29.09;28.40;100399.69;10382508;28;20085;-68
2022/05/18 10:57:07;;;;;;;4.72;1.80;;;;;;;28.74;28.23;100399.88;10379838;28;20092;-69
2022/05/18 11:02:39;;;;;;;7.97;2.30;;;;;;;28.51;29.26;100392.06;10376433;28;20540;-69
2022/05/18 11:07:41;;;;;;;4.95;2.22;;;;;;;28.55;30.76;100385.25;10381974;28;20847;-69
2022/05/18 11:13:05;;;;;;;5.07;2.28;;;;;;;28.30;30.31;100381.34;10383325;28;20514;-67
2022/05/18 11:18:30;;;;;;;5.93;2.53;;;;;;;28.34;31.72;100384.50;10375582;28;20140;-68
2022/05/18 11:23:53;;;;;;;8.95;2.50;;;;;;;28.58;30.22;100378.66;10378693;28;20545;-68
2022/05/18 11:29:02;;;;;;;6.45;2.17;;;;;;;28.36;29.96;100382.44;10382322;28;20187;-69
2022/05/18 11:34:41;;;;;;;4.57;2.10;;;;;;;28.08;31.17;100371.59;10384988;28;20049;-69
2022/05/18 11:40:09;;;;;;;6.27;2.63;;;;;;;27.60;31.04;100383.09;10386920;28;20053;-68
2022/05/18 11:45:38;;;;;;;10.40;2.22;;;;;;;27.91;30.59;100365.66;10386770;28;20049;-67
2022/05/18 11:50:54;;;;;;;6.70;2.10;;;;;;;27.91;30.43;100364.84;10385522;28;20776;-67
2022/05/18 11:56:01;;;;;;;7.63;2.22;;;;;;;28.16;30.09;100361.53;10381492;28;20133;-66
2022/05/18 12:01:15;;;;;;;5.82;2.10;;;;;;;28.31;30.28;100356.09;10382464;28;20862;-67
2022/05/18 12:06:21;;;;;;;7.75;2.30;;;;;;;28.28;30.86;100356.47;10382923;28;20468;-67
2022/05/18 12:12:04;;;;;;;5.25;2.17;;;;;;;28.18;30.41;100347.91;10384715;28;20041;-68
2022/05/18 12:17:28;;;;;;;5.78;2.40;;;;;;;28.12;31.08;100346.00;10385436;28;20130;-68
2022/05/18 12:22:38;;;;;;;7.88;1.90;;;;;;;28.30;30.00;100348.25;10388418;28;20140;-67
2022/05/18 12:27:41;;;;;;;5.05;2.08;;;;;;;28.34;28.63;100357.59;10382554;28;20239;-68
2022/05/18 12:32:44;;;;;;;8.02;1.95;;;;;;;28.10;29.35;100348.03;10389236;28;20501;-69
2022/05/18 12:37:58;;;;;;;4.63;1.95;;;;;;;28.09;28.71;100344.53;10384857;28;20052;-68
2022/05/18 12:43:11;;;;;;;5.20;2.00;;;;;;;28.37;30.22;100341.03;10383270;28;20080;-68
2022/05/18 12:48:31;;;;;;;13.85;2.65;;;;;;;28.50;30.06;100344.66;10388511;28;20060;-69
2022/05/18 12:54:13;;;;;;;4.57;1.90;;;;;;;28.48;28.04;100341.34;10370448;28;20084;-68
2022/05/18 12:59:22;;;;;;;5.75;2.13;;;;;;;28.43;29.15;100338.41;10380645;28;20086;-68
2022/05/18 13:04:24;;;;;;;6.13;2.00;;;;;;;28.32;29.05;100333.53;10387978;28;20502;-68
2022/05/18 13:09:28;;;;;;;4.80;1.92;;;;;;;28.57;28.75;100339.31;10387636;28;20136;-67
2022/05/18 13:14:34;;;;;;;4.03;2.00;;;;;;;28.44;28.97;100331.16;10386561;28;20093;-68
2022/05/18 13:19:36;;;;;;;5.63;1.80;;;;;;;28.19;28.37;100326.22;10386060;28;20057;-68
2022/05/18 13:24:45;;;;;;;3.97;1.70;;;;;;;28.20;28.98;100330.53;10386700;28;20054;-68
2022/05/18 13:29:52;;;;;;;4.30;1.80;;;;;;;28.28;29.21;100326.88;10382643;28;20123;-68
2022/05/18 13:35:20;;;;;;;3.90;1.50;;;;;;;28.54;29.56;100324.41;10383625;28;20612;-68
2022/05/18 13:40:25;;;;;;;4.70;1.70;;;;;;;28.55;28.84;100315.28;10385720;28;20061;-68
2022/05/18 13:45:29;;;;;;;6.95;2.00;;;;;;;28.56;27.33;100308.06;10385972;28;20144;-67
2022/05/18 13:51:09;;;;;;;3.75;1.60;;;;;;;28.62;28.19;100300.03;10374827;28;20892;-68
2022/05/18 13:56:20;;;;;;;3.88;1.70;;;;;;;28.73;28.69;100295.91;10376523;28;20045;-68
2022/05/18 14:01:29;;;;;;;4.43;1.83;;;;;;;28.86;27.29;100287.94;10384363;28;20049;-67
2022/05/18 14:06:32;;;;;;;4.80;1.77;;;;;;;28.67;26.99;100285.94;10374949;28;20108;-67
2022/05/18 14:11:47;;;;;;;7.05;1.90;;;;;;;28.83;27.17;100291.81;10383735;28;20061;-67
2022/05/18 14:16:56;;;;;;;10.65;1.80;;;;;;;28.84;26.96;100288.13;10384277;28;20103;-68
2022/05/18 14:22:20;;;;;;;4.80;1.90;;;;;;;28.76;26.70;100284.75;10381912;28;20050;-68
2022/05/18 14:27:27;;;;;;;4.78;1.80;;;;;;;28.85;27.59;100281.72;10382768;28;20520;-68
2022/05/18 14:32:42;;;;;;;3.65;1.70;;;;;;;29.07;26.12;100283.22;10379365;28;20110;-67
2022/05/18 14:37:51;;;;;;;2.83;1.60;;;;;;;28.83;25.89;100270.28;10382931;28;20141;-67
2022/05/18 14:42:54;;;;;;;4.18;1.52;;;;;;;28.92;26.52;100268.28;10379123;28;20112;-67
2022/05/18 14:48:05;;;;;;;3.22;1.60;;;;;;;29.08;26.12;100265.22;10380905;28;20053;-67
2022/05/18 14:53:21;;;;;;;7.72;1.80;;;;;;;28.86;25.95;100259.16;10381088;28;20049;-67
2022/05/18 14:58:27;;;;;;;5.20;1.40;;;;;;;28.90;25.22;100268.50;10379752;28;20128;-66
2022/05/18 15:03:39;;;;;;;5.63;1.55;;;;;;;28.95;25.55;100259.81;10380067;28;20093;-67
2022/05/18 15:08:53;;;;;;;3.53;1.60;;;;;;;29.05;25.44;100258.38;10379706;28;20049;-68
2022/05/18 15:14:17;;;;;;;5.68;1.80;;;;;;;29.16;25.10;100245.34;10379607;28;20045;-68
2022/05/18 15:19:25;;;;;;;2.92;1.50;;;;;;;29.23;25.68;100248.88;10370866;28;20061;-68
2022/05/18 15:24:30;;;;;;;4.68;1.65;;;;;;;29.05;25.77;100252.19;10382027;28;20085;-68
2022/05/18 15:29:35;;;;;;;3.20;1.45;;;;;;;29.01;24.46;100246.34;10377958;28;20176;-68
2022/05/18 15:34:45;;;;;;;5.80;1.73;;;;;;;29.13;25.84;100245.75;10367412;28;20073;-67
2022/05/18 15:39:47;;;;;;;7.32;2.25;;;;;;;29.43;26.10;100244.38;10378855;28;20061;-68
2022/05/18 15:44:49;;;;;;;4.95;1.67;;;;;;;29.46;25.61;100244.00;10379150;28;20054;-68
2022/05/18 15:49:58;;;;;;;5.38;1.67;;;;;;;29.41;24.43;100236.53;10373736;28;20053;-68
2022/05/18 15:55:04;;;;;;;2.78;1.60;;;;;;;29.39;25.67;100237.75;10373318;28;20053;-68
2022/05/18 16:00:09;;;;;;;5.78;1.83;;;;;;;29.39;25.85;100233.19;10375107;28;20092;-68
2022/05/18 16:05:12;;;;;;;4.13;1.80;;;;;;;29.38;25.09;100234.19;10375899;28;20056;-68
2022/05/18 16:10:16;;;;;;;4.22;1.90;;;;;;;29.21;26.27;100230.25;10372750;28;20088;-68
2022/05/18 16:15:19;;;;;;;5.03;1.70;;;;;;;29.36;26.20;100227.38;10379522;28;20585;-68
2022/05/18 16:20:21;;;;;;;3.53;1.90;;;;;;;29.36;28.07;100228.16;10377733;28;20057;-67
2022/05/18 16:25:44;;;;;;;3.20;1.75;;;;;;;29.23;28.22;100225.47;10381980;28;20142;-68
2022/05/18 16:30:46;;;;;;;5.50;1.88;;;;;;;29.15;27.91;100230.22;10375104;28;20091;-67
2022/05/18 16:36:04;;;;;;;4.40;1.80;;;;;;;28.80;28.09;100232.16;10383487;28;20490;-67
2022/05/18 16:41:29;;;;;;;6.25;1.90;;;;;;;28.69;28.37;100228.19;10384242;28;20078;-68
2022/05/18 16:46:31;;;;;;;5.15;1.90;;;;;;;28.55;30.73;100237.25;10375052;28;20064;-67
2022/05/18 16:51:34;;;;;;;4.30;1.80;;;;;;;28.35;30.87;100233.63;10382966;28;20077;-66
2022/05/18 16:56:36;;;;;;;5.15;2.10;;;;;;;28.32;31.53;100227.81;10373583;28;20160;-66
2022/05/18 17:01:43;;;;;;;3.72;2.03;;;;;;;28.06;29.56;100228.44;10383270;28;20052;-67
2022/05/18 17:06:45;;;;;;;5.28;2.05;;;;;;;27.82;30.63;100229.75;10382679;28;20127;-68
2022/05/18 17:11:52;;;;;;;5.85;1.88;;;;;;;27.68;32.25;100225.25;10384020;28;20300;-68
2022/05/18 17:17:01;;;;;;;4.93;2.10;;;;;;;27.64;31.42;100224.00;10380522;28;20045;-66
2022/05/18 17:22:03;;;;;;;4.55;2.05;;;;;;;27.60;33.01;100227.25;10381562;28;20042;-68
2022/05/18 17:27:19;;;;;;;5.30;2.10;;;;;;;27.54;34.17;100226.19;10383406;28;20148;-67
2022/05/18 17:32:27;;;;;;;4.65;1.80;;;;;;;27.30;35.48;100230.06;10380978;28;20054;-66
2022/05/18 17:37:29;;;;;;;3.67;2.08;;;;;;;27.23;35.63;100233.72;10382909;28;20593;-67
2022/05/18 17:42:31;;;;;;;4.03;2.30;;;;;;;26.97;37.62;100228.91;10380237;28;20069;-68
2022/05/18 17:47:33;;;;;;;5.53;2.25;;;;;;;26.83;38.23;100228.94;10379256;28;20684;-68
2022/05/18 17:52:35;;;;;;;4.60;2.20;;;;;;;26.68;38.16;100221.75;10374521;28;20128;-67
2022/05/18 17:57:37;;;;;;;3.72;2.00;;;;;;;26.66;37.75;100222.94;10380255;28;20486;-68
2022/05/18 18:02:42;;;;;;;5.63;2.20;;;;;;;26.55;38.97;100231.44;10376905;28;20453;-67
2022/05/18 18:07:46;;;;;;;4.65;2.10;;;;;;;26.34;39.23;100226.84;10379179;28;20059;-67
2022/05/18 18:12:49;;;;;;;5.47;2.50;;;;;;;26.16;39.44;100225.56;10378169;28;20128;-67
2022/05/18 18:17:56;;;;;;;4.82;2.58;;;;;;;26.01;39.80;100236.28;10379350;28;20128;-68
2022/05/18 18:22:59;;;;;;;5.90;2.08;;;;;;;25.73;40.04;100225.28;10379657;28;20424;-68
2022/05/18 18:28:00;;;;;;;5.50;2.20;;;;;;;25.57;40.64;100229.97;10377874;28;20228;-67
2022/05/18 18:33:02;;;;;;;9.18;2.72;;;;;;;25.24;41.91;100236.56;10372916;28;20045;-67
2022/05/18 18:38:06;;;;;;;6.40;2.65;;;;;;;25.04;42.55;100234.34;10372939;28;20041;-67
2022/05/18 18:43:14;;;;;;;6.22;2.40;;;;;;;24.81;43.31;100232.66;10374635;28;20037;-67
2022/05/18 18:48:17;;;;;;;5.35;2.53;;;;;;;24.50;43.79;100247.78;10378643;28;20049;-66
2022/05/18 18:58:40;;;;;;;6.63;2.58;;;;;;;23.77;45.42;100247.13;10379411;28;20534;-67
2022/05/18 19:03:42;;;;;;;4.82;2.55;;;;;;;23.62;45.68;100249.63;10376538;28;20046;-68
2022/05/18 19:08:44;;;;;;;4.82;2.50;;;;;;;23.54;46.24;100251.44;10381860;28;20056;-68
2022/05/18 19:13:46;;;;;;;7.15;3.05;;;;;;;23.33;47.22;100255.41;10377611;28;20136;-68
2022/05/18 19:18:51;;;;;;;4.50;2.92;;;;;;;23.03;47.58;100260.53;10377400;28;21425;-68
2022/05/18 19:23:53;;;;;;;7.75;2.92;;;;;;;22.65;48.59;100265.41;10382011;28;20049;-68
2022/05/18 19:28:56;;;;;;;9.73;2.92;;;;;;;22.56;48.84;100271.69;10380091;28;20636;-68
2022/05/18 19:33:58;;;;;;;6.18;2.78;;;;;;;22.49;48.89;100276.00;10376272;28;20281;-68
2022/05/18 19:39:00;;;;;;;5.60;2.85;;;;;;;22.34;49.64;100269.59;10377277;28;20167;-68
2022/05/18 19:44:02;;;;;;;6.85;3.03;;;;;;;22.04;50.20;100280.72;10381554;28;20053;-68
2022/05/18 19:49:05;;;;;;;5.55;2.83;;;;;;;21.77;50.87;100268.34;10383655;28;20049;-68
2022/05/18 19:54:07;;;;;;;4.28;2.70;;;;;;;21.64;51.05;100283.06;10387139;28;20049;-68
2022/05/18 19:59:13;;;;;;;6.07;3.00;;;;;;;21.62;51.12;100280.53;10388328;28;20057;-67
2022/05/18 20:04:15;;;;;;;8.00;3.10;;;;;;;21.24;51.81;100274.66;10387175;28;20932;-68
2022/05/18 20:09:18;;;;;;;7.22;3.60;;;;;;;20.97;52.75;100280.84;10381972;28;20129;-68
2022/05/18 20:14:20;;;;;;;7.60;4.38;;;;;;;20.96;52.72;100276.53;10387714;28;20128;-68
2022/05/18 20:19:22;;;;;;;6.47;3.75;;;;;;;20.97;52.65;100275.53;10384981;28;20107;-63
2022/05/18 20:24:24;;;;;;;7.78;4.60;;;;;;;20.82;52.85;100274.38;10381208;28;20135;-64
2022/05/18 20:29:25;;;;;;;5.85;3.10;;;;;;;20.72;52.92;100279.72;10383052;28;20169;-63
2022/05/18 20:34:29;;;;;;;4.68;3.00;;;;;;;20.60;53.18;100274.78;10382327;28;20049;-63
2022/05/18 20:39:31;;;;;;;5.38;3.17;;;;;;;20.44;53.58;100274.53;10381101;28;20545;-64
2022/05/18 20:44:35;;;;;;;5.20;2.90;;;;;;;20.27;54.08;100276.13;10381719;28;20139;-62
2022/05/18 20:49:45;;;;;;;7.00;3.45;;;;;;;20.15;54.93;100266.69;10384557;28;20498;-64
2022/05/18 20:54:47;;;;;;;5.13;2.92;;;;;;;20.10;54.45;100282.19;10384692;28;20140;-64
2022/05/18 20:59:55;;;;;;;6.63;3.00;;;;;;;20.05;54.90;100279.94;10386651;28;20056;-64
2022/05/18 21:04:57;;;;;;;4.50;2.80;;;;;;;19.97;54.72;100289.63;10381188;28;20044;-64
2022/05/18 21:09:58;;;;;;;5.57;3.30;;;;;;;19.86;54.58;100284.47;10385467;28;20099;-63
2022/05/18 21:15:00;;;;;;;6.82;3.30;;;;;;;19.78;54.68;100287.81;10385455;28;20218;-63
2022/05/18 21:20:02;;;;;;;6.18;4.25;;;;;;;19.58;55.17;100286.16;10387670;28;20060;-63
2022/05/18 21:25:05;;;;;;;7.35;4.53;;;;;;;19.40;55.59;100286.00;10384151;28;20134;-63
2022/05/18 21:30:07;;;;;;;9.93;4.65;;;;;;;19.13;55.99;100288.50;10387053;28;20057;-63
2022/05/18 21:35:12;;;;;;;5.72;4.13;;;;;;;19.10;56.27;100282.63;10384533;28;20093;-63
2022/05/18 21:40:15;;;;;;;8.02;3.30;;;;;;;19.11;56.35;100287.81;10384217;28;20069;-63
2022/05/18 21:45:23;;;;;;;9.55;3.55;;;;;;;19.12;56.53;100289.47;10385613;28;20248;-63
2022/05/18 21:50:25;;;;;;;5.93;3.80;;;;;;;18.83;57.01;100288.53;10383143;28;20072;-63
2022/05/18 21:55:28;;;;;;;6.38;3.47;;;;;;;18.78;56.87;100285.47;10384782;28;20049;-63
2022/05/18 22:00:30;;;;;;;5.35;3.55;;;;;;;18.76;56.90;100287.41;10384359;28;20470;-63
2022/05/18 22:05:35;;;;;;;5.40;3.40;;;;;;;18.69;56.81;100286.25;10386334;28;20497;-63
2022/05/18 22:10:37;;;;;;;8.10;4.20;;;;;;;18.48;57.41;100293.44;10383070;28;20057;-64
2022/05/18 22:15:41;;;;;;;7.10;3.70;;;;;;;18.38;57.65;100297.84;10385128;28;21445;-63
2022/05/18 22:20:43;;;;;;;6.90;3.60;;;;;;;18.31;58.00;100296.69;10384359;28;20053;-63
2022/05/18 22:25:46;;;;;;;10.75;3.70;;;;;;;18.36;57.72;100302.44;10383326;28;20386;-63
2022/05/18 22:30:49;;;;;;;6.40;3.42;;;;;;;18.36;58.23;100300.63;10383977;28;20083;-61
2022/05/18 22:35:50;;;;;;;7.00;3.75;;;;;;;18.29;58.06;100298.63;10383412;28;20128;-62
2022/05/18 22:40:53;;;;;;;8.20;4.30;;;;;;;18.07;58.74;100296.13;10383155;28;20561;-62
2022/05/18 22:45:56;;;;;;;7.25;3.80;;;;;;;17.99;58.89;100291.47;10382263;28;20084;-62
2022/05/18 22:50:58;;;;;;;10.88;5.03;;;;;;;18.07;58.31;100285.53;10382941;28;20064;-62
2022/05/18 22:56:00;;;;;;;11.43;5.60;;;;;;;17.91;58.81;100290.44;10383381;28;20120;-62
2022/05/18 23:01:02;;;;;;;6.85;3.80;;;;;;;17.83;59.26;100286.63;10361568;28;20140;-63
2022/05/18 23:06:05;;;;;;;9.13;4.22;;;;;;;17.91;59.35;100285.16;10381486;28;20140;-63
2022/05/18 23:11:07;;;;;;;9.02;4.97;;;;;;;17.83;58.98;100280.50;10381146;28;20049;-64
2022/05/18 23:16:11;;;;;;;17.30;4.97;;;;;;;17.69;59.52;100279.00;10380518;28;20510;-63
2022/05/18 23:21:15;;;;;;;7.65;5.13;;;;;;;17.43;59.86;100277.69;10382528;28;20115;-63
2022/05/18 23:26:18;;;;;;;8.75;4.85;;;;;;;17.35;59.85;100272.19;10385678;28;20056;-63
2022/05/18 23:31:23;;;;;;;9.02;4.80;;;;;;;17.38;60.41;100274.59;10389890;28;20085;-62
2022/05/18 23:36:25;;;;;;;8.80;5.03;;;;;;;17.44;60.00;100263.53;10384743;28;20049;-63
2022/05/18 23:41:27;;;;;;;9.75;4.85;;;;;;;17.13;60.55;100266.97;10388403;28;20143;-63
2022/05/18 23:46:34;;;;;;;9.90;4.60;;;;;;;17.15;60.56;100267.69;10384648;28;20560;-63
2022/05/18 23:51:36;;;;;;;8.65;4.85;;;;;;;17.17;60.55;100273.69;10381573;28;20490;-64